createdAt,value
2023-03-26T00:00:48.614Z,80.40
2023-03-26T00:03:17.167Z,80.30
2023-03-26T00:05:45.877Z,80.30
2023-03-26T00:08:12.571Z,80.20
2023-03-26T00:10:40.694Z,80.20
2023-03-26T00:13:07.838Z,80.10
2023-03-26T00:15:36.050Z,80.10
2023-03-26T00:18:03.149Z,80.10
2023-03-26T00:20:32.889Z,80.10
2023-03-26T00:23:03.487Z,80.10
2023-03-26T00:25:31.979Z,80.00
2023-03-26T00:27:59.838Z,80.00
2023-03-26T00:30:27.610Z,80.10
2023-03-26T00:32:54.298Z,80.10
2023-03-26T00:35:22.464Z,80.10
2023-03-26T00:37:51.424Z,80.10
2023-03-26T00:40:18.369Z,80.20
2023-03-26T00:42:44.960Z,80.10
2023-03-26T00:45:11.738Z,80.10
2023-03-26T00:47:40.063Z,80.20
2023-03-26T00:50:15.135Z,80.30
2023-03-26T00:52:46.153Z,80.30
2023-03-26T00:55:13.379Z,80.20
2023-03-26T00:57:40.614Z,80.30
2023-03-26T01:00:16.773Z,80.30
2023-03-26T01:02:47.017Z,80.30
2023-03-26T01:05:33.819Z,80.30
2023-03-26T01:08:15.031Z,80.30
2023-03-26T01:10:44.189Z,80.30
2023-03-26T01:13:10.884Z,80.30
2023-03-26T01:15:39.004Z,80.30
2023-03-26T01:18:09.792Z,80.40
2023-03-26T01:20:46.858Z,80.40
2023-03-26T01:23:20.330Z,80.50
2023-03-26T01:26:05.283Z,80.60
2023-03-26T01:28:35.562Z,80.60
2023-03-26T01:31:21.813Z,80.60
2023-03-26T01:34:30.664Z,80.70
2023-03-26T01:37:15.156Z,80.70
2023-03-26T01:40:19.398Z,80.60
2023-03-26T01:43:00.259Z,80.70
2023-03-26T01:45:32.204Z,80.60
2023-03-26T01:47:59.773Z,80.60
2023-03-26T01:50:26.355Z,80.50
2023-03-26T01:52:53.131Z,80.50
2023-03-26T01:55:20.801Z,80.50
2023-03-26T01:57:50.158Z,80.50
2023-03-26T02:00:31.483Z,80.70
2023-03-26T02:03:04.694Z,80.70
2023-03-26T02:05:40.403Z,80.70
2023-03-26T02:08:35.336Z,80.80
2023-03-26T02:11:11.539Z,80.90
2023-03-26T02:13:43.604Z,81.00
2023-03-26T02:16:14.345Z,81.10
2023-03-26T02:18:41.146Z,81.10
2023-03-26T02:21:13.788Z,81.10
2023-03-26T02:23:46.919Z,81.20
2023-03-26T02:26:16.365Z,81.20
2023-03-26T02:28:43.010Z,81.30
2023-03-26T02:31:11.092Z,81.30
2023-03-26T02:33:38.106Z,81.30
2023-03-26T02:36:06.316Z,81.40
2023-03-26T02:38:35.123Z,81.50
2023-03-26T02:41:04.962Z,81.50
2023-03-26T02:43:31.624Z,81.50
2023-03-26T02:45:58.753Z,81.60
2023-03-26T02:48:26.176Z,81.70
2023-03-26T02:50:54.582Z,81.80
2023-03-26T02:53:23.776Z,81.90
2023-03-26T02:55:50.556Z,81.90
2023-03-26T02:58:17.657Z,81.90
2023-03-26T03:00:46.055Z,82.00
2023-03-26T03:03:13.549Z,82.00
2023-03-26T03:05:43.013Z,82.00
2023-03-26T03:08:10.178Z,82.00
2023-03-26T03:10:37.807Z,81.90
2023-03-26T03:13:07.725Z,82.00
2023-03-26T03:15:34.952Z,82.00
2023-03-26T03:18:02.146Z,82.00
2023-03-26T03:20:30.297Z,82.00
2023-03-26T03:22:56.942Z,82.10
2023-03-26T03:25:25.915Z,82.20
2023-03-26T03:27:53.908Z,82.20
2023-03-26T03:30:20.873Z,82.20
2023-03-26T03:32:47.953Z,82.30
2023-03-26T03:35:14.575Z,82.30
2023-03-26T03:37:41.361Z,82.30
2023-03-26T03:40:10.789Z,82.30
2023-03-26T03:42:38.061Z,82.40
2023-03-26T03:45:06.469Z,82.30
2023-03-26T03:47:33.176Z,82.40
2023-03-26T03:50:02.802Z,82.40
2023-03-26T03:52:29.428Z,82.40
2023-03-26T03:54:57.690Z,82.50
2023-03-26T03:57:24.317Z,82.50
2023-03-26T03:59:50.964Z,82.60
2023-03-26T04:02:26.481Z,82.60
2023-03-26T04:04:54.258Z,82.50
2023-03-26T04:07:21.143Z,82.50
2023-03-26T04:09:47.792Z,82.50
2023-03-26T04:12:14.828Z,82.50
2023-03-26T04:14:41.511Z,82.50
2023-03-26T04:17:08.587Z,82.60
2023-03-26T04:19:35.791Z,82.50
2023-03-26T04:22:02.531Z,82.40
2023-03-26T04:24:29.985Z,82.40
2023-03-26T04:26:58.293Z,82.40
2023-03-26T04:29:27.720Z,82.30
2023-03-26T04:31:58.734Z,82.40
2023-03-26T04:34:25.536Z,82.30
2023-03-26T04:36:56.142Z,82.20
2023-03-26T04:39:22.888Z,82.20
2023-03-26T04:41:49.533Z,82.20
2023-03-26T04:44:16.990Z,82.20
2023-03-26T04:46:44.924Z,82.20
2023-03-26T04:49:11.689Z,82.20
2023-03-26T04:51:41.704Z,82.10
2023-03-26T04:54:12.639Z,82.20
2023-03-26T04:56:59.574Z,82.10
2023-03-26T04:59:37.139Z,82.20
2023-03-26T05:02:05.613Z,82.10
2023-03-26T05:04:36.739Z,82.00
2023-03-26T05:07:03.592Z,82.00
2023-03-26T05:09:30.687Z,82.00
2023-03-26T05:11:58.309Z,82.00
2023-03-26T05:14:24.969Z,82.00
2023-03-26T05:16:53.281Z,82.00
2023-03-26T05:19:21.083Z,82.10
2023-03-26T05:21:47.982Z,82.10
2023-03-26T05:24:14.686Z,82.10
2023-03-26T05:26:41.640Z,82.10
2023-03-26T05:29:08.618Z,82.20
2023-03-26T05:31:35.275Z,82.30
2023-03-26T05:34:02.913Z,82.30
2023-03-26T05:36:29.951Z,82.30
2023-03-26T05:38:57.235Z,82.30
2023-03-26T05:41:23.847Z,82.30
2023-03-26T05:43:51.107Z,82.20
2023-03-26T05:46:20.260Z,82.20
2023-03-26T05:48:47.221Z,82.20
2023-03-26T05:51:15.512Z,82.30
2023-03-26T05:53:42.435Z,82.40
2023-03-26T05:56:09.739Z,82.40
2023-03-26T05:58:36.557Z,82.40
2023-03-26T06:01:08.930Z,82.40
2023-03-26T06:03:39.690Z,82.40
2023-03-26T06:06:15.427Z,82.40
2023-03-26T06:08:46.592Z,82.50
2023-03-26T06:11:13.220Z,82.60
2023-03-26T06:13:40.067Z,82.60
2023-03-26T06:16:07.504Z,82.60
2023-03-26T06:18:34.319Z,82.60
2023-03-26T06:21:01.612Z,82.70
2023-03-26T06:23:28.534Z,82.70
2023-03-26T06:25:55.152Z,83.50
2023-03-26T06:28:21.805Z,82.70
2023-03-26T06:30:49.230Z,82.70
2023-03-26T06:33:16.020Z,82.70
2023-03-26T06:35:44.130Z,82.60
2023-03-26T06:38:11.088Z,82.60
2023-03-26T06:40:37.965Z,82.60
2023-03-26T06:43:08.719Z,82.60
2023-03-26T06:45:37.658Z,82.70
2023-03-26T06:48:04.991Z,82.60
2023-03-26T06:50:32.730Z,82.50
2023-03-26T06:52:59.946Z,82.50
2023-03-26T06:55:26.944Z,82.60
2023-03-26T06:57:55.899Z,82.50
2023-03-26T07:00:22.802Z,82.50
2023-03-26T07:02:49.519Z,82.50
2023-03-26T07:05:16.257Z,82.50
2023-03-26T07:07:46.867Z,82.60
2023-03-26T07:10:14.483Z,82.50
2023-03-26T07:12:42.348Z,82.50
2023-03-26T07:15:10.194Z,82.50
2023-03-26T07:17:37.384Z,82.50
2023-03-26T07:20:06.452Z,82.40
2023-03-26T07:22:33.858Z,82.40
2023-03-26T07:25:01.192Z,82.20
2023-03-26T07:27:31.616Z,82.30
2023-03-26T07:30:16.317Z,82.20
2023-03-26T07:32:52.202Z,82.30
2023-03-26T07:35:32.531Z,82.20
2023-03-26T07:38:21.128Z,82.20
2023-03-26T07:41:12.411Z,82.20
2023-03-26T07:44:10.441Z,82.10
2023-03-26T07:46:39.173Z,82.00
2023-03-26T07:49:06.360Z,82.00
2023-03-26T07:51:33.612Z,82.10
2023-03-26T07:54:00.803Z,82.20
2023-03-26T07:56:30.559Z,82.10
2023-03-26T07:59:05.806Z,82.00
2023-03-26T08:02:18.997Z,82.00
2023-03-26T08:04:51.928Z,82.10
2023-03-26T08:07:55.982Z,82.10
2023-03-26T08:10:43.321Z,82.00
2023-03-26T08:13:26.757Z,81.90
2023-03-26T08:16:24.266Z,81.80
2023-03-26T08:19:08.928Z,81.70
2023-03-26T08:21:42.794Z,81.70
2023-03-26T08:24:20.845Z,81.60
2023-03-26T08:27:06.692Z,81.50
2023-03-26T08:29:59.584Z,81.50
2023-03-26T08:32:27.153Z,81.30
2023-03-26T08:34:53.847Z,81.20
2023-03-26T08:37:20.526Z,81.10
2023-03-26T08:39:47.205Z,81.20
2023-03-26T08:42:19.597Z,81.20
2023-03-26T08:45:10.895Z,81.10
2023-03-26T08:47:46.600Z,81.00
2023-03-26T08:50:16.248Z,81.10
2023-03-26T08:53:11.030Z,81.00
2023-03-26T08:55:49.351Z,81.00
2023-03-26T08:58:40.332Z,81.80
2023-03-26T09:01:36.891Z,81.00
2023-03-26T09:04:36.231Z,81.00
2023-03-26T09:07:36.206Z,81.00
2023-03-26T09:10:43.428Z,81.10
2023-03-26T09:13:38.979Z,80.90
2023-03-26T09:16:36.504Z,80.90
2023-03-26T09:19:53.940Z,80.90
2023-03-26T09:22:50.632Z,80.90
2023-03-26T09:25:43.296Z,81.00
2023-03-26T09:28:25.184Z,80.90
2023-03-26T09:30:57.469Z,81.00
2023-03-26T09:33:55.796Z,81.00
2023-03-26T09:36:52.960Z,81.10
2023-03-26T09:39:55.798Z,82.20
2023-03-26T09:42:44.933Z,81.50
2023-03-26T09:45:36.988Z,81.20
2023-03-26T09:48:18.304Z,81.20
2023-03-26T09:51:03.783Z,81.20
2023-03-26T09:53:52.328Z,81.20
2023-03-26T09:56:46.684Z,81.10
2023-03-26T09:59:44.320Z,80.90
2023-03-26T10:02:52.103Z,81.10
2023-03-26T10:05:24.272Z,81.20
2023-03-26T10:08:13.029Z,81.20
2023-03-26T10:10:55.262Z,81.00
2023-03-26T10:13:46.924Z,80.90
2023-03-26T10:16:49.405Z,80.90
2023-03-26T10:19:35.498Z,80.90
2023-03-26T10:22:24.794Z,80.90
2023-03-26T10:25:18.981Z,80.70
2023-03-26T10:27:48.847Z,80.90
2023-03-26T10:30:31.303Z,80.90
2023-03-26T10:33:27.478Z,81.00
2023-03-26T10:36:28.307Z,81.80
2023-03-26T10:39:37.874Z,81.00
2023-03-26T10:42:12.709Z,81.00
2023-03-26T10:45:15.515Z,81.10
2023-03-26T10:47:58.778Z,81.00
2023-03-26T10:51:02.673Z,80.80
2023-03-26T10:53:32.140Z,80.60
2023-03-26T10:56:07.206Z,80.60
2023-03-26T10:58:49.361Z,80.50
2023-03-26T11:01:32.408Z,80.60
2023-03-26T11:04:28.266Z,80.70
2023-03-26T11:07:28.392Z,80.60
2023-03-26T11:10:16.594Z,80.60
2023-03-26T11:12:43.245Z,80.60
2023-03-26T11:15:33.238Z,80.60
2023-03-26T11:18:20.320Z,80.50
2023-03-26T11:21:18.993Z,80.40
2023-03-26T11:24:05.114Z,80.30
2023-03-26T11:26:56.393Z,80.20
2023-03-26T11:29:48.849Z,80.30
2023-03-26T11:32:22.222Z,80.40
2023-03-26T11:35:00.880Z,80.50
2023-03-26T11:37:34.573Z,80.50
2023-03-26T11:40:07.145Z,80.40
2023-03-26T11:42:34.753Z,80.50
2023-03-26T11:45:13.347Z,80.40
2023-03-26T11:47:50.616Z,80.30
2023-03-26T11:50:23.726Z,80.10
2023-03-26T11:52:50.379Z,80.20
2023-03-26T11:55:17.852Z,80.30
2023-03-26T11:57:55.382Z,80.40
2023-03-26T12:00:27.511Z,80.40
2023-03-26T12:02:59.050Z,80.30
2023-03-26T12:05:31.437Z,80.20
2023-03-26T12:08:00.497Z,80.00
2023-03-26T12:10:34.994Z,80.00
2023-03-26T12:13:14.773Z,80.00
2023-03-26T12:15:43.803Z,80.00
2023-03-26T12:18:24.177Z,80.00
2023-03-26T12:21:10.104Z,80.00
2023-03-26T12:23:53.918Z,80.10
2023-03-26T12:26:36.473Z,80.10
2023-03-26T12:29:15.559Z,80.10
2023-03-26T12:31:49.344Z,80.10
2023-03-26T12:34:19.034Z,79.90
2023-03-26T12:36:55.529Z,80.00
2023-03-26T12:40:08.989Z,80.10
2023-03-26T12:44:48.982Z,80.00
2023-03-26T12:45:27.954Z,80.80
2023-03-26T12:48:03.536Z,79.70
2023-03-26T12:51:09.791Z,79.40
2023-03-26T12:53:45.432Z,79.00
2023-03-26T12:56:36.067Z,79.20
2023-03-26T12:59:23.619Z,79.60
2023-03-26T13:02:06.164Z,79.00
2023-03-26T13:04:35.584Z,78.80
2023-03-26T13:07:24.585Z,78.40
2023-03-26T13:10:22.700Z,78.50
2023-03-26T13:13:28.353Z,78.50
2023-03-26T13:16:05.687Z,78.60
2023-03-26T13:18:55.546Z,78.50
2023-03-26T13:21:38.568Z,78.50
2023-03-26T13:24:23.209Z,78.40
2023-03-26T13:27:19.662Z,78.00
2023-03-26T13:30:04.839Z,77.50
2023-03-26T13:33:06.779Z,77.50
2023-03-26T13:35:39.558Z,77.10
2023-03-26T13:38:16.963Z,76.90
2023-03-26T13:40:49.407Z,76.60
2023-03-26T13:43:40.983Z,76.60
2023-03-26T13:46:14.624Z,76.60
2023-03-26T13:48:50.571Z,76.60
2023-03-26T13:51:40.307Z,76.50
2023-03-26T13:54:23.088Z,76.30
2023-03-26T13:56:56.645Z,75.90
2023-03-26T13:59:37.416Z,75.80
2023-03-26T14:02:11.523Z,75.70
2023-03-26T14:04:48.116Z,75.50
2023-03-26T14:07:50.352Z,75.20
2023-03-26T14:10:21.254Z,74.60
2023-03-26T14:12:59.533Z,74.60
2023-03-26T14:15:28.427Z,74.20
2023-03-26T14:18:22.476Z,73.70
2023-03-26T14:21:03.539Z,73.60
2023-03-26T14:23:48.793Z,73.10
2023-03-26T14:26:46.849Z,73.10
2023-03-26T14:29:31.693Z,72.90
2023-03-26T14:32:36.119Z,72.90
2023-03-26T14:35:25.865Z,72.30
2023-03-26T14:38:00.421Z,72.30
2023-03-26T14:40:57.039Z,72.50
2023-03-26T14:43:48.171Z,72.30
2023-03-26T14:46:46.064Z,71.90
2023-03-26T14:49:51.820Z,71.40
2023-03-26T14:52:31.494Z,71.20
2023-03-26T14:55:02.850Z,71.20
2023-03-26T14:58:03.751Z,71.20
2023-03-26T15:01:04.024Z,71.20
2023-03-26T15:04:12.241Z,71.10
2023-03-26T15:07:15.316Z,71.00
2023-03-26T15:10:00.909Z,71.10
2023-03-26T15:13:00.393Z,71.20
2023-03-26T15:15:55.127Z,70.80
2023-03-26T15:18:45.879Z,70.30
2023-03-26T15:21:31.121Z,70.90
2023-03-26T15:24:30.213Z,70.80
2023-03-26T15:27:42.743Z,70.30
2023-03-26T15:30:28.268Z,70.00
2023-03-26T15:33:19.201Z,69.90
2023-03-26T15:36:44.628Z,69.80
2023-03-26T15:39:44.323Z,69.10
2023-03-26T15:42:41.100Z,68.70
2023-03-26T15:45:31.369Z,68.30
2023-03-26T15:48:08.741Z,68.30
2023-03-26T15:51:15.488Z,68.40
2023-03-26T15:53:53.572Z,68.30
2023-03-26T15:56:41.972Z,68.30
2023-03-26T15:59:34.633Z,68.10
2023-03-26T16:02:16.476Z,67.70
2023-03-26T16:04:52.239Z,67.90
2023-03-26T16:07:41.664Z,68.10
2023-03-26T16:10:33.989Z,68.00
2023-03-26T16:13:19.615Z,67.90
2023-03-26T16:16:10.176Z,67.60
2023-03-26T16:18:50.283Z,67.50
2023-03-26T16:21:34.244Z,67.60
2023-03-26T16:24:07.278Z,67.40
2023-03-26T16:27:15.692Z,67.30
2023-03-26T16:30:12.572Z,67.00
2023-03-26T16:32:56.143Z,66.70
2023-03-26T16:35:38.461Z,66.80
2023-03-26T16:38:16.000Z,66.60
2023-03-26T16:41:06.092Z,66.30
2023-03-26T16:43:42.890Z,66.30
2023-03-26T16:46:28.141Z,66.70
2023-03-26T16:49:23.804Z,66.80
2023-03-26T16:52:03.221Z,66.20
2023-03-26T16:54:55.435Z,66.10
2023-03-26T16:57:56.491Z,66.00
2023-03-26T17:00:29.598Z,65.80
2023-03-26T17:03:25.596Z,65.70
2023-03-26T17:05:58.102Z,65.90
2023-03-26T17:08:42.037Z,66.00
2023-03-26T17:11:29.773Z,65.80
2023-03-26T17:14:33.667Z,65.80
2023-03-26T17:17:03.279Z,66.10
2023-03-26T17:19:45.814Z,65.80
2023-03-26T17:22:27.722Z,65.90
2023-03-26T17:25:20.792Z,65.50
2023-03-26T17:28:14.864Z,65.70
2023-03-26T17:31:04.589Z,65.80
2023-03-26T17:33:38.505Z,66.10
2023-03-26T17:36:11.438Z,66.00
2023-03-26T17:38:45.356Z,66.20
2023-03-26T17:41:14.771Z,66.30
2023-03-26T17:43:46.042Z,66.50
2023-03-26T17:46:24.836Z,66.60
2023-03-26T17:49:04.478Z,66.80
2023-03-26T17:51:40.449Z,66.70
2023-03-26T17:54:14.828Z,66.20
2023-03-26T17:56:42.279Z,66.10
2023-03-26T17:59:23.058Z,66.00
2023-03-26T18:01:55.302Z,65.60
2023-03-26T18:04:31.150Z,65.50
2023-03-26T18:07:28.415Z,65.00
2023-03-26T18:10:09.329Z,65.00
2023-03-26T18:12:57.945Z,65.10
2023-03-26T18:15:34.044Z,65.10
2023-03-26T18:18:20.487Z,65.20
2023-03-26T18:20:50.114Z,65.20
2023-03-26T18:23:47.723Z,65.30
2023-03-26T18:26:16.752Z,65.40
2023-03-26T18:28:49.067Z,65.50
2023-03-26T18:31:25.191Z,65.60
2023-03-26T18:33:58.968Z,65.80
2023-03-26T18:36:27.864Z,65.80
2023-03-26T18:39:00.521Z,65.90
2023-03-26T18:41:32.577Z,65.80
2023-03-26T18:44:04.668Z,65.90
2023-03-26T18:46:33.113Z,65.90
2023-03-26T18:49:03.230Z,66.50
2023-03-26T18:51:31.941Z,65.90
2023-03-26T18:54:00.678Z,66.20
2023-03-26T18:56:37.254Z,66.00
2023-03-26T18:59:31.748Z,66.20
2023-03-26T19:02:13.555Z,66.40
2023-03-26T19:04:46.140Z,66.40
2023-03-26T19:07:23.740Z,66.40
2023-03-26T19:09:52.579Z,66.70
2023-03-26T19:12:32.873Z,66.70
2023-03-26T19:15:17.272Z,66.50
2023-03-26T19:17:56.557Z,66.40
2023-03-26T19:20:28.861Z,66.70
2023-03-26T19:22:57.000Z,66.80
2023-03-26T19:25:28.277Z,66.70
2023-03-26T19:27:55.545Z,66.70
2023-03-26T19:30:32.775Z,66.60
2023-03-26T19:33:20.348Z,66.60
2023-03-26T19:35:53.420Z,66.40
2023-03-26T19:38:24.797Z,66.10
2023-03-26T19:40:53.294Z,66.10
2023-03-26T19:43:20.253Z,66.00
2023-03-26T19:45:59.225Z,66.00
2023-03-26T19:48:45.371Z,66.20
2023-03-26T19:51:44.232Z,66.20
2023-03-26T19:54:16.474Z,66.10
2023-03-26T19:56:43.429Z,66.20
2023-03-26T19:59:10.093Z,66.40
2023-03-26T20:01:36.894Z,66.60
2023-03-26T20:04:06.533Z,66.70
2023-03-26T20:06:43.936Z,66.80
2023-03-26T20:09:12.537Z,66.90
2023-03-26T20:11:40.506Z,66.80
2023-03-26T20:14:14.634Z,66.90
2023-03-26T20:16:43.870Z,67.20
2023-03-26T20:19:12.952Z,67.30
2023-03-26T20:21:40.785Z,67.30
2023-03-26T20:24:13.233Z,67.30
2023-03-26T20:26:39.848Z,67.50
2023-03-26T20:29:06.491Z,67.40
2023-03-26T20:31:33.384Z,67.60
2023-03-26T20:34:00.097Z,67.60
2023-03-26T20:36:32.661Z,67.60
2023-03-26T20:39:08.199Z,67.60
2023-03-26T20:41:39.918Z,67.70
2023-03-26T20:44:13.609Z,67.70
2023-03-26T20:46:40.600Z,67.60
2023-03-26T20:49:07.284Z,67.50
2023-03-26T20:51:33.928Z,67.30
2023-03-26T20:54:00.751Z,67.30
2023-03-26T20:56:28.112Z,67.30
2023-03-26T20:59:09.960Z,67.40
2023-03-26T21:01:38.044Z,67.50
2023-03-26T21:04:05.362Z,67.60
2023-03-26T21:06:32.063Z,67.60
2023-03-26T21:08:59.073Z,67.70
2023-03-26T21:11:50.643Z,67.80
2023-03-26T21:14:22.817Z,68.00
2023-03-26T21:16:49.973Z,68.20
2023-03-26T21:19:17.327Z,68.30
2023-03-26T21:21:57.485Z,68.20
2023-03-26T21:24:56.962Z,68.20
2023-03-26T21:28:05.913Z,68.20
2023-03-26T21:30:34.251Z,68.10
2023-03-26T21:33:01.524Z,68.10
2023-03-26T21:35:28.573Z,68.10
2023-03-26T21:37:57.633Z,68.30
2023-03-26T21:40:24.486Z,68.40
2023-03-26T21:42:53.395Z,68.40
2023-03-26T21:45:21.118Z,68.50
2023-03-26T21:47:48.580Z,68.50
2023-03-26T21:50:21.700Z,68.60
2023-03-26T21:52:50.028Z,68.70
2023-03-26T21:55:22.219Z,68.80
2023-03-26T21:58:12.463Z,68.90
2023-03-26T22:00:44.651Z,69.00
2023-03-26T22:03:27.893Z,69.10
2023-03-26T22:06:12.877Z,69.20
2023-03-26T22:08:41.380Z,69.20
2023-03-26T22:11:10.084Z,69.20
2023-03-26T22:13:38.681Z,69.30
2023-03-26T22:16:07.171Z,69.40
2023-03-26T22:18:34.136Z,69.50
2023-03-26T22:21:01.038Z,69.80
2023-03-26T22:23:33.992Z,69.90
2023-03-26T22:26:00.693Z,70.10
2023-03-26T22:28:27.664Z,70.30
2023-03-26T22:30:54.489Z,70.40
2023-03-26T22:33:21.438Z,70.40
2023-03-26T22:35:48.295Z,70.60
2023-03-26T22:38:16.955Z,70.60
2023-03-26T22:40:43.657Z,70.60
2023-03-26T22:43:10.300Z,70.70
2023-03-26T22:45:37.643Z,70.80
2023-03-26T22:48:04.786Z,70.70
2023-03-26T22:50:32.633Z,70.70
2023-03-26T22:52:59.432Z,70.70
2023-03-26T22:55:28.149Z,70.70
2023-03-26T22:57:55.796Z,70.70
2023-03-26T23:00:22.541Z,70.70
2023-03-26T23:02:49.956Z,70.70
2023-03-26T23:05:20.320Z,70.80
2023-03-26T23:07:47.233Z,71.50
2023-03-26T23:10:14.263Z,70.90
2023-03-26T23:12:41.463Z,70.90
2023-03-26T23:15:09.535Z,71.10
2023-03-26T23:17:37.463Z,71.20
2023-03-26T23:20:14.594Z,71.40
2023-03-26T23:22:42.993Z,71.50
2023-03-26T23:25:11.256Z,71.60
2023-03-26T23:27:39.876Z,71.80
2023-03-26T23:30:07.222Z,71.90
2023-03-26T23:32:37.757Z,71.90
2023-03-26T23:35:05.286Z,72.00
2023-03-26T23:37:35.134Z,72.20
2023-03-26T23:40:07.319Z,73.00
2023-03-26T23:42:34.398Z,72.40
2023-03-26T23:45:01.065Z,72.50
2023-03-26T23:47:34.105Z,72.40
2023-03-26T23:50:04.628Z,72.40
2023-03-26T23:52:31.645Z,72.30
2023-03-26T23:55:02.034Z,72.40
2023-03-26T23:57:29.048Z,72.40
2023-03-26T23:59:56.199Z,72.50
